createdAt,value
2023-02-11T00:04:40.453Z,26.25
2023-02-11T00:09:42.186Z,42.50
2023-02-11T00:14:43.912Z,34.00
2023-02-11T00:19:49.811Z,24.50
2023-02-11T00:24:51.586Z,18.50
2023-02-11T00:29:53.434Z,27.75
2023-02-11T00:34:55.476Z,24.25
2023-02-11T00:39:57.207Z,28.25
2023-02-11T00:44:58.922Z,22.75
2023-02-11T00:50:00.996Z,28.50
2023-02-11T00:55:03.078Z,19.00
2023-02-11T01:00:06.195Z,7.25
2023-02-11T01:05:08.458Z,23.75
2023-02-11T01:10:10.804Z,32.00
2023-02-11T01:15:17.003Z,21.00
2023-02-11T01:20:22.837Z,18.50
2023-02-11T01:25:25.112Z,19.75
2023-02-11T01:30:26.866Z,25.25
2023-02-11T01:35:28.550Z,15.00
2023-02-11T01:40:31.248Z,19.25
2023-02-11T01:45:46.177Z,16.25
2023-02-11T01:50:53.066Z,25.50
2023-02-11T01:56:15.419Z,17.50
2023-02-11T02:01:21.678Z,20.25
2023-02-11T02:06:30.425Z,18.50
2023-02-11T02:11:32.566Z,15.50
2023-02-11T02:16:36.886Z,14.00
2023-02-11T02:22:00.289Z,16.75
2023-02-11T02:27:53.122Z,27.50
2023-02-11T02:33:24.949Z,18.75
2023-02-11T02:38:48.870Z,21.00
2023-02-11T02:43:51.811Z,24.75
2023-02-11T02:48:55.054Z,17.50
2023-02-11T02:54:21.551Z,18.00
2023-02-11T03:00:08.174Z,21.75
2023-02-11T03:05:28.749Z,12.75
2023-02-11T03:10:36.301Z,15.50
2023-02-11T03:15:43.144Z,9.25
2023-02-11T03:20:49.566Z,10.75
2023-02-11T03:26:09.039Z,13.00
2023-02-11T03:31:15.138Z,14.75
2023-02-11T03:36:27.460Z,15.00
2023-02-11T03:41:31.541Z,13.25
2023-02-11T03:46:38.050Z,12.00
2023-02-11T03:51:40.837Z,8.50
2023-02-11T03:56:53.043Z,15.75
2023-02-11T04:01:55.030Z,11.50
2023-02-11T04:06:57.656Z,11.50
2023-02-11T04:11:59.469Z,16.00
2023-02-11T04:17:01.369Z,19.25
2023-02-11T04:22:03.498Z,15.75
2023-02-11T04:27:05.231Z,16.25
2023-02-11T04:32:07.477Z,16.75
2023-02-11T04:37:09.488Z,13.25
2023-02-11T04:42:11.338Z,12.75
2023-02-11T04:47:15.289Z,14.00
2023-02-11T04:52:17.070Z,19.75
2023-02-11T04:57:18.830Z,13.00
2023-02-11T05:02:20.622Z,19.75
2023-02-11T05:07:22.498Z,19.75
2023-02-11T05:12:24.254Z,21.25
2023-02-11T05:17:26.096Z,11.25
2023-02-11T05:22:27.876Z,19.75
2023-02-11T05:27:29.640Z,12.50
2023-02-11T05:32:31.637Z,13.50
2023-02-11T05:37:33.561Z,16.50
2023-02-11T05:42:35.435Z,7.75
2023-02-11T05:47:37.264Z,19.00
2023-02-11T05:52:39.025Z,18.75
2023-02-11T05:57:41.135Z,20.50
2023-02-11T06:02:42.956Z,14.00
2023-02-11T06:07:45.021Z,13.25
2023-02-11T06:12:46.946Z,15.00
2023-02-11T06:17:48.758Z,13.75
2023-02-11T06:22:50.604Z,10.00
2023-02-11T06:27:52.409Z,7.00
2023-02-11T06:32:54.930Z,4.00
2023-02-11T06:37:56.726Z,6.00
2023-02-11T06:42:58.539Z,4.25
2023-02-11T06:48:00.322Z,4.75
2023-02-11T06:53:02.301Z,6.25
2023-02-11T06:58:04.075Z,8.50
2023-02-11T07:03:05.833Z,4.00
2023-02-11T07:08:07.615Z,6.75
2023-02-11T07:13:09.381Z,9.00
2023-02-11T07:18:13.053Z,13.50
2023-02-11T07:23:16.262Z,84.67
2023-02-11T07:28:18.054Z,14.00
2023-02-11T07:33:20.078Z,16.25
2023-02-11T07:38:21.894Z,19.25
2023-02-11T07:43:23.659Z,14.25
2023-02-11T07:48:25.468Z,9.50
2023-02-11T07:53:27.219Z,29.75
2023-02-11T07:58:29.008Z,9.50
2023-02-11T08:03:32.278Z,17.75
2023-02-11T08:08:34.355Z,14.00
2023-02-11T08:13:36.855Z,5.50
2023-02-11T08:18:38.560Z,6.00
2023-02-11T08:23:42.967Z,28.25
2023-02-11T08:28:46.244Z,12.50
2023-02-11T08:33:48.389Z,5.00
2023-02-11T08:38:50.440Z,8.00
2023-02-11T08:43:52.375Z,7.00
2023-02-11T08:48:54.234Z,6.50
2023-02-11T08:53:56.567Z,5.00
2023-02-11T08:58:58.451Z,14.75
2023-02-11T09:04:01.121Z,10.25
2023-02-11T09:09:02.987Z,21.50
2023-02-11T09:14:05.199Z,15.00
2023-02-11T09:19:07.064Z,16.00
2023-02-11T09:24:08.916Z,22.50
2023-02-11T09:29:10.936Z,22.50
2023-02-11T09:34:13.158Z,33.00
2023-02-11T09:39:17.899Z,35.25
2023-02-11T09:44:26.770Z,26.50
2023-02-11T09:49:40.888Z,22.25
2023-02-11T09:55:01.871Z,22.75
2023-02-11T10:00:27.142Z,25.25
2023-02-11T10:05:31.787Z,29.25
2023-02-11T10:10:59.433Z,49.50
2023-02-11T10:16:19.884Z,41.25
2023-02-11T10:21:50.517Z,44.25
2023-02-11T10:26:52.572Z,41.75
2023-02-11T10:31:57.861Z,31.00
2023-02-11T10:37:00.388Z,26.00
2023-02-11T10:42:08.695Z,21.00
2023-02-11T10:47:21.176Z,27.00
2023-02-11T10:52:30.483Z,20.25
2023-02-11T10:57:44.680Z,35.75
2023-02-11T11:02:54.432Z,23.50
2023-02-11T11:07:59.560Z,27.25
2023-02-11T11:13:01.516Z,30.25
2023-02-11T11:18:21.281Z,20.50
2023-02-11T11:23:25.058Z,25.25
2023-02-11T11:28:29.916Z,35.00
2023-02-11T11:33:35.644Z,31.00
2023-02-11T11:38:52.335Z,33.00
2023-02-11T11:43:55.480Z,34.25
2023-02-11T11:49:04.777Z,42.00
2023-02-11T11:54:12.097Z,43.00
2023-02-11T11:59:16.487Z,42.50
2023-02-11T12:04:59.515Z,40.75
2023-02-11T12:10:31.283Z,39.50
2023-02-11T12:15:58.985Z,36.75
2023-02-11T12:21:11.743Z,41.00
2023-02-11T12:26:24.222Z,48.25
2023-02-11T12:31:26.119Z,44.00
2023-02-11T12:36:56.024Z,36.75
2023-02-11T12:42:39.190Z,48.25
2023-02-11T12:47:53.137Z,44.00
2023-02-11T12:53:19.400Z,30.00
2023-02-11T12:58:32.637Z,29.25
2023-02-11T13:04:09.303Z,26.00
2023-02-11T13:09:18.995Z,33.50
2023-02-11T13:14:23.936Z,38.25
2023-02-11T13:19:34.835Z,33.25
2023-02-11T13:24:51.589Z,39.50
2023-02-11T13:30:13.898Z,34.75
2023-02-11T13:35:33.473Z,34.50
2023-02-11T13:40:37.986Z,32.00
2023-02-11T13:45:44.998Z,30.25
2023-02-11T13:50:50.079Z,30.25
2023-02-11T13:56:07.735Z,22.00
2023-02-11T14:01:09.744Z,28.00
2023-02-11T14:06:31.805Z,31.50
2023-02-11T14:11:33.574Z,38.50
2023-02-11T14:16:38.257Z,34.75
2023-02-11T14:21:44.095Z,31.50
2023-02-11T14:27:04.314Z,25.25
2023-02-11T14:32:17.815Z,35.00
2023-02-11T14:37:27.196Z,31.25
2023-02-11T14:42:31.251Z,26.75
2023-02-11T14:47:43.684Z,25.25
2023-02-11T14:52:46.268Z,17.75
2023-02-11T14:57:50.900Z,27.50
2023-02-11T15:02:53.627Z,35.75
2023-02-11T15:07:59.638Z,27.00
2023-02-11T15:13:03.557Z,32.00
2023-02-11T15:18:05.754Z,34.50
2023-02-11T15:23:16.954Z,33.00
2023-02-11T15:28:29.002Z,36.00
2023-02-11T15:33:32.324Z,30.00
2023-02-11T15:38:34.241Z,37.25
2023-02-11T15:43:54.122Z,56.50
2023-02-11T15:48:56.160Z,37.00
2023-02-11T15:54:08.105Z,44.25
2023-02-11T15:59:25.707Z,36.50
2023-02-11T16:04:28.185Z,49.00
2023-02-11T16:09:36.555Z,39.50
2023-02-11T16:14:41.179Z,38.00
2023-02-11T16:19:46.144Z,43.25
2023-02-11T16:24:51.212Z,46.00
2023-02-11T16:29:53.367Z,46.50
2023-02-11T16:34:58.016Z,28.75
2023-02-11T16:39:59.875Z,40.00
2023-02-11T16:45:02.090Z,31.25
2023-02-11T16:50:04.565Z,40.00
2023-02-11T16:55:06.677Z,35.25
2023-02-11T17:00:09.106Z,32.25
2023-02-11T17:05:20.433Z,44.75
2023-02-11T17:10:23.653Z,31.00
2023-02-11T17:15:25.522Z,27.00
2023-02-11T17:20:27.387Z,27.50
2023-02-11T17:25:29.287Z,13.75
2023-02-11T17:30:31.224Z,23.00
2023-02-11T17:35:33.024Z,11.25
2023-02-11T17:40:34.887Z,15.25
2023-02-11T17:45:41.595Z,23.75
2023-02-11T17:50:43.664Z,61.00
2023-02-11T17:55:45.553Z,37.25
2023-02-11T18:00:47.410Z,34.75
2023-02-11T18:05:49.609Z,19.75
2023-02-11T18:10:51.690Z,23.25
2023-02-11T18:15:53.723Z,23.00
2023-02-11T18:21:00.178Z,21.00
2023-02-11T18:26:02.978Z,18.00
2023-02-11T18:31:05.924Z,21.75
2023-02-11T18:36:10.259Z,24.75
2023-02-11T18:41:13.445Z,28.50
2023-02-11T18:46:16.410Z,19.25
2023-02-11T18:51:18.814Z,18.00
2023-02-11T18:56:23.054Z,22.00
2023-02-11T19:01:29.304Z,21.75
2023-02-11T19:06:34.526Z,24.75
2023-02-11T19:11:47.591Z,26.00
2023-02-11T19:16:51.550Z,22.25
2023-02-11T19:21:54.777Z,9.00
2023-02-11T19:26:58.947Z,15.00
2023-02-11T19:32:05.858Z,35.75
2023-02-11T19:37:12.649Z,15.50
2023-02-11T19:42:15.160Z,13.00
2023-02-11T19:47:17.846Z,17.00
2023-02-11T19:52:19.899Z,15.50
2023-02-11T19:57:21.835Z,11.50
2023-02-11T20:02:23.777Z,12.00
2023-02-11T20:07:25.642Z,15.50
2023-02-11T20:12:27.573Z,17.00
2023-02-11T20:17:29.366Z,16.50
2023-02-11T20:22:32.412Z,50.25
2023-02-11T20:27:34.212Z,33.00
2023-02-11T20:32:38.418Z,43.00
2023-02-11T20:37:43.786Z,32.00
2023-02-11T20:42:45.987Z,22.50
2023-02-11T20:47:47.869Z,21.75
2023-02-11T20:52:49.828Z,14.00
2023-02-11T20:57:51.626Z,18.00
2023-02-11T21:02:53.752Z,14.00
2023-02-11T21:07:55.638Z,16.50
2023-02-11T21:12:57.627Z,11.00
2023-02-11T21:17:59.406Z,14.00
2023-02-11T21:23:01.135Z,12.25
2023-02-11T21:28:03.052Z,12.00
2023-02-11T21:33:05.960Z,10.75
2023-02-11T21:38:07.819Z,8.50
2023-02-11T21:43:09.559Z,12.00
2023-02-11T21:48:12.224Z,14.25
2023-02-11T21:53:14.948Z,8.00
2023-02-11T21:58:16.943Z,11.00
2023-02-11T22:03:18.742Z,16.75
2023-02-11T22:08:20.511Z,21.25
2023-02-11T22:13:22.304Z,15.50
2023-02-11T22:18:24.100Z,19.25
2023-02-11T22:23:25.876Z,14.75
2023-02-11T22:28:27.767Z,18.00
2023-02-11T22:33:29.488Z,14.75
2023-02-11T22:38:32.766Z,12.75
2023-02-11T22:43:34.716Z,12.00
2023-02-11T22:48:36.608Z,16.00
2023-02-11T22:53:38.623Z,15.50
2023-02-11T22:58:40.518Z,11.00
2023-02-11T23:03:42.712Z,10.00
2023-02-11T23:08:44.787Z,11.00
2023-02-11T23:13:48.167Z,9.50
2023-02-11T23:18:50.939Z,14.25
2023-02-11T23:23:58.222Z,15.00
2023-02-11T23:29:00.283Z,11.25
2023-02-11T23:34:02.074Z,13.75
2023-02-11T23:39:04.759Z,21.25
2023-02-11T23:44:06.597Z,14.50
2023-02-11T23:49:08.434Z,18.00
2023-02-11T23:54:14.625Z,16.25
2023-02-11T23:59:17.071Z,10.25
